Seago Felixstowe — OZCX2 — position and weather

sailwx.info

Track history (hours):
 
Tides and Currents Weather Stations Pressure Air Temp Water Temp Dewpoint Dewpoint Depression Visibility Wind Speed Wind Dir Waves Ship Positions

Seago Felixstowe

Last reported at 2017-Sep-21 03:30 UTC. Time now 2017-Sep-21 03:41 UTC.
Position N 32°03' E 031°46'.

Length 294 m; draft 10.3 m.

Type: Ship (hazmat cat A). MMSI: 219196000.

Date/timePositionNaut miles runAvg speedWind from/ knotsBaromVisibWave heightAir tempDewpointWater temp
2017-Sep-21 03:30N 32°03' E 031°46'712.0
2017-Sep-21 02:58N 32°03' E 031°54'812.0
2017-Sep-21 02:18N 32°03' E 032°03'411.8
2017-Sep-21 02:00N 32°04' E 032°07'1011.7
2017-Sep-21 01:10N 32°04' E 032°19'1111.6
2017-Sep-21 00:13N 32°05' E 032°32'311.4
2017-Sep-20 23:59N 32°05' E 032°35'611.4
2017-Sep-20 23:29N 32°05' E 032°42'1511.3
2017-Sep-20 22:08N 32°06' E 032°60'411.1
2017-Sep-20 21:47N 32°06' E 033°04'311.3
2017-Sep-20 21:30N 32°06' E 033°08'611.3
2017-Sep-20 20:59N 32°06' E 033°15'511.4
2017-Sep-20 20:30N 32°06' E 033°21'711.9
2017-Sep-20 19:57N 32°07' E 033°29'512.0
2017-Sep-20 19:30N 32°07' E 033°35'612.0
2017-Sep-20 19:00N 32°07' E 033°42'612.0
2017-Sep-20 18:30N 32°07' E 033°50'911.5
2017-Sep-20 17:45N 32°04' E 033°59'711.7
2017-Sep-20 17:07N 32°01' E 034°07'211.8
2017-Sep-20 16:59N 32°00' E 034°09'812.0
2017-Sep-20 16:19N 31°57' E 034°17'1811.4
2017-Sep-20 14:45N 31°52' E 034°37'181 5.2
2017-Sep-19 03:42N 34°35' E 033°04'314.2
2017-Sep-19 03:30N 34°38' E 033°04'2 3.9
2017-Sep-19 02:54N 34°39' E 033°01'0 0.0
2017-Sep-19 02:27N 34°39' E 033°01'0 0.0
2017-Sep-19 02:00N 34°39' E 033°01'0 0.0
2017-Sep-19 01:25N 34°39' E 033°01'0 0.0
2017-Sep-19 01:00N 34°39' E 033°01'0 0.0
2017-Sep-19 00:30N 34°39' E 033°01'0 0.0
2017-Sep-19 00:00N 34°39' E 033°01'0 0.0
2017-Sep-18 23:30N 34°39' E 033°01'0 0.0
2017-Sep-18 23:00N 34°39' E 033°01'0 0.0
2017-Sep-18 22:24N 34°39' E 033°01'0 0.0
2017-Sep-18 22:00N 34°39' E 033°01'0 0.0
2017-Sep-18 21:30N 34°39' E 033°01'0 0.0
2017-Sep-18 21:00N 34°39' E 033°01'0 0.0
2017-Sep-18 20:30N 34°39' E 033°01'0 0.0
2017-Sep-18 20:00N 34°39' E 033°01'0 0.0
2017-Sep-18 19:30N 34°39' E 033°01'0 0.0
2017-Sep-18 18:57N 34°39' E 033°01'0 0.0
2017-Sep-18 18:30N 34°39' E 033°01'0 0.0
2017-Sep-18 18:00N 34°39' E 033°01'0 0.0
2017-Sep-18 17:30N 34°39' E 033°01'0 0.0
2017-Sep-18 17:00N 34°39' E 033°01'0 0.0
2017-Sep-18 16:30N 34°39' E 033°01'0 0.0
2017-Sep-18 16:00N 34°39' E 033°01'0 0.0
2017-Sep-18 15:27N 34°39' E 033°01'0 0.0
2017-Sep-18 15:00N 34°39' E 033°01'0 0.0
2017-Sep-18 14:30N 34°39' E 033°01'0 0.0
2017-Sep-18 14:00N 34°39' E 033°01'0 0.0
2017-Sep-18 13:30N 34°39' E 033°01'0 0.0
2017-Sep-18 13:00N 34°39' E 033°01'0 0.0
2017-Sep-18 12:30N 34°39' E 033°01'1 2.3
2017-Sep-18 12:00N 34°39' E 033°02'4 5.4
2017-Sep-18 11:22N 34°36' E 033°04'3 8.0
2017-Sep-18 10:57N 34°33' E 033°04'48418.1
2017-Sep-17 08:15N 34°51' E 023°16'518.5
2017-Sep-17 08:00N 34°52' E 023°10'918.3
2017-Sep-17 07:30N 34°53' E 022°60'1718.2
2017-Sep-17 06:33N 34°57' E 022°39'118.2
2017-Sep-17 06:29N 34°58' E 022°37'918.1
2017-Sep-17 06:00N 34°59' E 022°27'918.1
2017-Sep-17 05:29N 35°01' E 022°16'918.3
2017-Sep-17 05:00N 35°03' E 022°05'918.4
2017-Sep-17 04:30N 35°05' E 021°54'1418.6
2017-Sep-17 03:45N 35°08' E 021°37'518.6
2017-Sep-17 03:30N 35°09' E 021°32'1818.5
2017-Sep-17 02:32N 35°13' E 021°10'018.2
2017-Sep-17 02:30N 35°13' E 021°10'2818.7
2017-Sep-17 01:01N 35°19' E 020°37'018.4
2017-Sep-17 00:59N 35°19' E 020°36'1018.5
2017-Sep-17 00:25N 35°21' E 020°24'2618.2
2017-Sep-16 23:00N 35°26' E 019°53'2418.1
2017-Sep-16 21:41N 35°32' E 019°24'2618.4
2017-Sep-16 20:17N 35°37' E 018°53'1518.8
2017-Sep-16 19:30N 35°40' E 018°36'1018.8
2017-Sep-16 19:00N 35°43' E 018°24'918.7
2017-Sep-16 18:29N 35°45' E 018°13'1118.5
2017-Sep-16 17:54N 35°46' E 017°60'718.4
2017-Sep-16 17:30N 35°48' E 017°51'918.4
2017-Sep-16 17:00N 35°50' E 017°40'918.3
2017-Sep-16 16:30N 35°52' E 017°29'918.4
2017-Sep-16 16:00N 35°54' E 017°18'918.3
2017-Sep-16 15:30N 35°55' E 017°06'918.1
2017-Sep-16 15:00N 35°57' E 016°55'918.0
2017-Sep-16 14:30N 35°59' E 016°45'918.0
2017-Sep-16 14:00N 36°02' E 016°34'917.7
2017-Sep-16 13:30N 36°04' E 016°23'1117.4
2017-Sep-16 12:51N 36°06' E 016°09'617.3
2017-Sep-16 12:30N 36°07' E 016°02'917.3
2017-Sep-16 12:00N 36°08' E 015°52'917.3
2017-Sep-16 11:30N 36°10' E 015°41'917.2
2017-Sep-16 11:00N 36°12' E 015°31'917.9
2017-Sep-16 10:30N 36°14' E 015°20'918.2
2017-Sep-16 10:00N 36°16' E 015°09'918.3
2017-Sep-16 09:30N 36°18' E 014°58'918.4
2017-Sep-16 09:00N 36°20' E 014°47'918.6
2017-Sep-16 08:30N 36°22' E 014°36'918.6
2017-Sep-16 08:00N 36°25' E 014°24'918.6
2017-Sep-16 07:30N 36°28' E 014°13'918.6
2017-Sep-16 07:00N 36°30' E 014°02'1019.7
2017-Sep-16 06:30N 36°33' E 013°50'1020.1
2017-Sep-16 06:00N 36°36' E 013°39'918.6
2017-Sep-16 05:30N 36°39' E 013°27'918.3
2017-Sep-16 05:00N 36°41' E 013°17'918.0
2017-Sep-16 04:30N 36°44' E 013°06'918.0
2017-Sep-16 04:00N 36°46' E 012°55'918.0
2017-Sep-16 03:30N 36°49' E 012°44'918.1
2017-Sep-16 03:00N 36°52' E 012°33'918.1
2017-Sep-16 02:30N 36°55' E 012°23'918.2
2017-Sep-16 02:00N 36°57' E 012°12'918.4
2017-Sep-16 01:30N 36°60' E 012°01'918.3
2017-Sep-16 01:00N 37°03' E 011°50'918.2
2017-Sep-16 00:30N 37°08' E 011°40'918.4
2017-Sep-16 00:00N 37°13' E 011°30'918.4
2017-Sep-15 23:30N 37°17' E 011°20'917.9
2017-Sep-15 23:00N 37°22' E 011°11'917.8
2017-Sep-15 22:30N 37°25' E 011°00'918.1
2017-Sep-15 22:00N 37°28' E 010°49'918.2
2017-Sep-15 21:30N 37°30' E 010°38'918.3
2017-Sep-15 21:00N 37°32' E 010°27'918.6
2017-Sep-15 20:30N 37°34' E 010°16'1018.7
2017-Sep-15 20:00N 37°34' E 010°04'918.4
2017-Sep-15 19:30N 37°35' E 009°52'918.5
2017-Sep-15 19:00N 37°36' E 009°41'3918.1
2017-Sep-15 16:50N 37°43' E 008°52'618.1
2017-Sep-15 16:29N 37°42' E 008°44'918.1
2017-Sep-15 16:00N 37°40' E 008°33'917.8
2017-Sep-15 15:29N 37°39' E 008°21'917.3
2017-Sep-15 14:59N 37°38' E 008°11'27118.5
2017-Sep-15 00:18N 36°54' E 002°35'819.0
2017-Sep-14 23:53N 36°52' E 002°25'2818.5
2017-Sep-14 22:22N 36°49' E 001°50'3118.1
2017-Sep-14 20:38N 36°43' E 001°12'318.1
2017-Sep-14 20:29N 36°43' E 001°08'918.4
2017-Sep-14 20:00N 36°41' E 000°57'1018.9
2017-Sep-14 19:27N 36°40' E 000°45'919.1
2017-Sep-14 18:59N 36°38' E 000°34'919.0
2017-Sep-14 18:30N 36°37' E 000°22'1019.1
2017-Sep-14 18:00N 36°35' E 000°11'1019.0
2017-Sep-14 17:30N 36°34' W 000°01'1019.0
2017-Sep-14 16:59N 36°33' W 000°13'918.8
2017-Sep-14 16:30N 36°31' W 000°24'1018.8
2017-Sep-14 15:57N 36°30' W 000°37'918.6
2017-Sep-14 15:28N 36°28' W 000°48'2219.0
2017-Sep-14 14:19N 36°24' W 001°15'719.6
2017-Sep-14 13:58N 36°23' W 001°23'1119.6
2017-Sep-14 13:23N 36°21' W 001°37'819.5
2017-Sep-14 13:00N 36°19' W 001°46'1319.3
2017-Sep-14 12:20N 36°18' W 002°02'15219.2
2017-Sep-14 04:26N 36°01' W 005°09'818.9
2017-Sep-14 04:00N 35°59' W 005°18'6318.4
2017-Sep-14 00:36N 35°59' W 006°36'218.9
2017-Sep-14 00:28N 35°59' W 006°39'4718.7
2017-Sep-13 21:57N 36°12' W 007°35'918.5
2017-Sep-13 21:27N 36°14' W 007°46'918.6
2017-Sep-13 20:59N 36°16' W 007°56'1019.0
2017-Sep-13 20:28N 36°19' W 008°08'918.8
2017-Sep-13 19:59N 36°21' W 008°19'918.9
2017-Sep-13 19:30N 36°23' W 008°30'918.7
2017-Sep-13 19:00N 36°26' W 008°41'1019.1
2017-Sep-13 18:30N 36°28' W 008°53'919.0
2017-Sep-13 18:00N 36°30' W 009°04'918.4
2017-Sep-13 17:30N 36°33' W 009°15'1018.5
2017-Sep-13 16:57N 36°41' W 009°24'819.0
2017-Sep-13 16:30N 36°47' W 009°31'1318.8
2017-Sep-13 15:48N 36°60' W 009°36'719.2
2017-Sep-13 15:25N 37°07' W 009°39'919.2
2017-Sep-13 14:58N 37°15' W 009°42'919.7
2017-Sep-13 14:30N 37°24' W 009°44'1819.4
2017-Sep-13 13:34N 37°42' W 009°49'119.0
2017-Sep-13 13:30N 37°43' W 009°49'918.8
2017-Sep-13 13:00N 37°52' W 009°53'918.8
2017-Sep-13 12:30N 38°01' W 009°56'1018.9
2017-Sep-13 12:00N 38°10' W 009°58'1219.3
2017-Sep-13 11:22N 38°22' W 010°02'919.3
2017-Sep-13 10:54N 38°31' W 010°04'718.9
2017-Sep-13 10:31N 38°38' W 010°06'918.7
2017-Sep-13 10:00N 38°48' W 010°07'1019.3
2017-Sep-13 09:30N 38°57' W 010°07'1019.3
2017-Sep-13 09:00N 39°07' W 010°07'1019.0
2017-Sep-13 08:30N 39°16' W 010°07'3019.0
2017-Sep-13 06:54N 39°47' W 010°07'63717.2
2017-Sep-11 17:51N 49°30' W 004°08'817.2
2017-Sep-11 17:25N 49°34' W 003°58'717.7
2017-Sep-11 17:01N 49°37' W 003°48'918.4
2017-Sep-11 16:30N 49°42' W 003°36'1019.7
2017-Sep-11 16:01N 49°47' W 003°23'1020.6
2017-Sep-11 15:31N 49°52' W 003°09'1020.4
2017-Sep-11 15:01N 49°57' W 002°55'1019.8
2017-Sep-11 14:30N 50°00' W 002°40'2818.2
2017-Sep-11 12:59N 50°08' W 001°59'816.3
2017-Sep-11 12:30N 50°11' W 001°48'815.2
2017-Sep-11 12:00N 50°12' W 001°36'815.0
2017-Sep-11 11:30N 50°14' W 001°25'714.7
2017-Sep-11 11:00N 50°16' W 001°13'114210.7
2017-Sep-11 10:28N 51°05' E 001°30'98182.5
2017-Sep-11 09:55N 50°20' W 000°49'1216.3
2017-Sep-11 09:13N 50°24' W 000°31'417.3
2017-Sep-11 09:01N 50°24' W 000°26'918.0
2017-Sep-11 08:31N 50°27' W 000°12'918.7
2017-Sep-11 08:00N 50°29' E 000°02'1019.3
2017-Sep-11 07:31N 50°32' E 000°16'1019.5
2017-Sep-11 07:00N 50°35' E 000°31'1019.2
2017-Sep-11 06:31N 50°40' E 000°44'919.0
2017-Sep-11 06:01N 50°46' E 000°55'918.1
2017-Sep-11 05:30N 50°52' E 001°06'1017.4
2017-Sep-11 04:56N 50°59' E 001°18'716.2
2017-Sep-11 04:31N 51°04' E 001°25'815.4
2017-Sep-11 04:01N 51°08' E 001°36'815.2
2017-Sep-11 03:31N 51°12' E 001°45'  
Track history (hours):
 
Tides and Currents Weather Stations Pressure Air Temp Water Temp Dewpoint Dewpoint Depression Visibility Wind Speed Wind Dir Waves Ship Positions

Seago Felixstowe

Last reported at 2017-Sep-21 03:30 UTC. Time now 2017-Sep-21 03:41 UTC.
Position N 32°03' E 031°46'.

Length 294 m; draft 10.3 m.

Type: Ship (hazmat cat A). MMSI: 219196000.

Date/timePositionNaut miles runAvg speedWind from/ knotsBaromVisibWave heightAir tempDewpointWater temp
2017-Sep-21 03:30N 32°03' E 031°46'712.0
2017-Sep-21 02:58N 32°03' E 031°54'812.0
2017-Sep-21 02:18N 32°03' E 032°03'411.8
2017-Sep-21 02:00N 32°04' E 032°07'1011.7
2017-Sep-21 01:10N 32°04' E 032°19'1111.6
2017-Sep-21 00:13N 32°05' E 032°32'311.4
2017-Sep-20 23:59N 32°05' E 032°35'611.4
2017-Sep-20 23:29N 32°05' E 032°42'1511.3
2017-Sep-20 22:08N 32°06' E 032°60'411.1
2017-Sep-20 21:47N 32°06' E 033°04'311.3
2017-Sep-20 21:30N 32°06' E 033°08'611.3
2017-Sep-20 20:59N 32°06' E 033°15'511.4
2017-Sep-20 20:30N 32°06' E 033°21'711.9
2017-Sep-20 19:57N 32°07' E 033°29'512.0
2017-Sep-20 19:30N 32°07' E 033°35'612.0
2017-Sep-20 19:00N 32°07' E 033°42'612.0
2017-Sep-20 18:30N 32°07' E 033°50'911.5
2017-Sep-20 17:45N 32°04' E 033°59'711.7
2017-Sep-20 17:07N 32°01' E 034°07'211.8
2017-Sep-20 16:59N 32°00' E 034°09'812.0
2017-Sep-20 16:19N 31°57' E 034°17'1811.4
2017-Sep-20 14:45N 31°52' E 034°37'181 5.2
2017-Sep-19 03:42N 34°35' E 033°04'314.2
2017-Sep-19 03:30N 34°38' E 033°04'2 3.9
2017-Sep-19 02:54N 34°39' E 033°01'0 0.0
2017-Sep-19 02:27N 34°39' E 033°01'0 0.0
2017-Sep-19 02:00N 34°39' E 033°01'0 0.0
2017-Sep-19 01:25N 34°39' E 033°01'0 0.0
2017-Sep-19 01:00N 34°39' E 033°01'0 0.0
2017-Sep-19 00:30N 34°39' E 033°01'0 0.0
2017-Sep-19 00:00N 34°39' E 033°01'0 0.0
2017-Sep-18 23:30N 34°39' E 033°01'0 0.0
2017-Sep-18 23:00N 34°39' E 033°01'0 0.0
2017-Sep-18 22:24N 34°39' E 033°01'0 0.0
2017-Sep-18 22:00N 34°39' E 033°01'0 0.0
2017-Sep-18 21:30N 34°39' E 033°01'0 0.0
2017-Sep-18 21:00N 34°39' E 033°01'0 0.0
2017-Sep-18 20:30N 34°39' E 033°01'0 0.0
2017-Sep-18 20:00N 34°39' E 033°01'0 0.0
2017-Sep-18 19:30N 34°39' E 033°01'0 0.0
2017-Sep-18 18:57N 34°39' E 033°01'0 0.0
2017-Sep-18 18:30N 34°39' E 033°01'0 0.0
2017-Sep-18 18:00N 34°39' E 033°01'0 0.0
2017-Sep-18 17:30N 34°39' E 033°01'0 0.0
2017-Sep-18 17:00N 34°39' E 033°01'0 0.0
2017-Sep-18 16:30N 34°39' E 033°01'0 0.0
2017-Sep-18 16:00N 34°39' E 033°01'0 0.0
2017-Sep-18 15:27N 34°39' E 033°01'0 0.0
2017-Sep-18 15:00N 34°39' E 033°01'0 0.0
2017-Sep-18 14:30N 34°39' E 033°01'0 0.0
2017-Sep-18 14:00N 34°39' E 033°01'0 0.0
2017-Sep-18 13:30N 34°39' E 033°01'0 0.0
2017-Sep-18 13:00N 34°39' E 033°01'0 0.0
2017-Sep-18 12:30N 34°39' E 033°01'1 2.3
2017-Sep-18 12:00N 34°39' E 033°02'4 5.4
2017-Sep-18 11:22N 34°36' E 033°04'3 8.0
2017-Sep-18 10:57N 34°33' E 033°04'48418.1
2017-Sep-17 08:15N 34°51' E 023°16'518.5
2017-Sep-17 08:00N 34°52' E 023°10'918.3
2017-Sep-17 07:30N 34°53' E 022°60'1718.2
2017-Sep-17 06:33N 34°57' E 022°39'118.2
2017-Sep-17 06:29N 34°58' E 022°37'918.1
2017-Sep-17 06:00N 34°59' E 022°27'918.1
2017-Sep-17 05:29N 35°01' E 022°16'918.3
2017-Sep-17 05:00N 35°03' E 022°05'918.4
2017-Sep-17 04:30N 35°05' E 021°54'1418.6
2017-Sep-17 03:45N 35°08' E 021°37'518.6
2017-Sep-17 03:30N 35°09' E 021°32'1818.5
2017-Sep-17 02:32N 35°13' E 021°10'018.2
2017-Sep-17 02:30N 35°13' E 021°10'2818.7
2017-Sep-17 01:01N 35°19' E 020°37'018.4
2017-Sep-17 00:59N 35°19' E 020°36'1018.5
2017-Sep-17 00:25N 35°21' E 020°24'2618.2
2017-Sep-16 23:00N 35°26' E 019°53'2418.1
2017-Sep-16 21:41N 35°32' E 019°24'2618.4
2017-Sep-16 20:17N 35°37' E 018°53'1518.8
2017-Sep-16 19:30N 35°40' E 018°36'1018.8
2017-Sep-16 19:00N 35°43' E 018°24'918.7
2017-Sep-16 18:29N 35°45' E 018°13'1118.5
2017-Sep-16 17:54N 35°46' E 017°60'718.4
2017-Sep-16 17:30N 35°48' E 017°51'918.4
2017-Sep-16 17:00N 35°50' E 017°40'918.3
2017-Sep-16 16:30N 35°52' E 017°29'918.4
2017-Sep-16 16:00N 35°54' E 017°18'918.3
2017-Sep-16 15:30N 35°55' E 017°06'918.1
2017-Sep-16 15:00N 35°57' E 016°55'918.0
2017-Sep-16 14:30N 35°59' E 016°45'918.0
2017-Sep-16 14:00N 36°02' E 016°34'917.7
2017-Sep-16 13:30N 36°04' E 016°23'1117.4
2017-Sep-16 12:51N 36°06' E 016°09'617.3
2017-Sep-16 12:30N 36°07' E 016°02'917.3
2017-Sep-16 12:00N 36°08' E 015°52'917.3
2017-Sep-16 11:30N 36°10' E 015°41'917.2
2017-Sep-16 11:00N 36°12' E 015°31'917.9
2017-Sep-16 10:30N 36°14' E 015°20'918.2
2017-Sep-16 10:00N 36°16' E 015°09'918.3
2017-Sep-16 09:30N 36°18' E 014°58'918.4
2017-Sep-16 09:00N 36°20' E 014°47'918.6
2017-Sep-16 08:30N 36°22' E 014°36'918.6
2017-Sep-16 08:00N 36°25' E 014°24'918.6
2017-Sep-16 07:30N 36°28' E 014°13'918.6
2017-Sep-16 07:00N 36°30' E 014°02'1019.7
2017-Sep-16 06:30N 36°33' E 013°50'1020.1
2017-Sep-16 06:00N 36°36' E 013°39'918.6
2017-Sep-16 05:30N 36°39' E 013°27'918.3
2017-Sep-16 05:00N 36°41' E 013°17'918.0
2017-Sep-16 04:30N 36°44' E 013°06'918.0
2017-Sep-16 04:00N 36°46' E 012°55'918.0
2017-Sep-16 03:30N 36°49' E 012°44'918.1
2017-Sep-16 03:00N 36°52' E 012°33'918.1
2017-Sep-16 02:30N 36°55' E 012°23'918.2
2017-Sep-16 02:00N 36°57' E 012°12'918.4
2017-Sep-16 01:30N 36°60' E 012°01'918.3
2017-Sep-16 01:00N 37°03' E 011°50'918.2
2017-Sep-16 00:30N 37°08' E 011°40'918.4
2017-Sep-16 00:00N 37°13' E 011°30'918.4
2017-Sep-15 23:30N 37°17' E 011°20'917.9
2017-Sep-15 23:00N 37°22' E 011°11'917.8
2017-Sep-15 22:30N 37°25' E 011°00'918.1
2017-Sep-15 22:00N 37°28' E 010°49'918.2
2017-Sep-15 21:30N 37°30' E 010°38'918.3
2017-Sep-15 21:00N 37°32' E 010°27'918.6
2017-Sep-15 20:30N 37°34' E 010°16'1018.7
2017-Sep-15 20:00N 37°34' E 010°04'918.4
2017-Sep-15 19:30N 37°35' E 009°52'918.5
2017-Sep-15 19:00N 37°36' E 009°41'3918.1
2017-Sep-15 16:50N 37°43' E 008°52'618.1
2017-Sep-15 16:29N 37°42' E 008°44'918.1
2017-Sep-15 16:00N 37°40' E 008°33'917.8
2017-Sep-15 15:29N 37°39' E 008°21'917.3
2017-Sep-15 14:59N 37°38' E 008°11'27118.5
2017-Sep-15 00:18N 36°54' E 002°35'819.0
2017-Sep-14 23:53N 36°52' E 002°25'2818.5
2017-Sep-14 22:22N 36°49' E 001°50'3118.1
2017-Sep-14 20:38N 36°43' E 001°12'318.1
2017-Sep-14 20:29N 36°43' E 001°08'918.4
2017-Sep-14 20:00N 36°41' E 000°57'1018.9
2017-Sep-14 19:27N 36°40' E 000°45'919.1
2017-Sep-14 18:59N 36°38' E 000°34'919.0
2017-Sep-14 18:30N 36°37' E 000°22'1019.1
2017-Sep-14 18:00N 36°35' E 000°11'1019.0
2017-Sep-14 17:30N 36°34' W 000°01'1019.0
2017-Sep-14 16:59N 36°33' W 000°13'918.8
2017-Sep-14 16:30N 36°31' W 000°24'1018.8
2017-Sep-14 15:57N 36°30' W 000°37'918.6
2017-Sep-14 15:28N 36°28' W 000°48'2219.0
2017-Sep-14 14:19N 36°24' W 001°15'719.6
2017-Sep-14 13:58N 36°23' W 001°23'1119.6
2017-Sep-14 13:23N 36°21' W 001°37'819.5
2017-Sep-14 13:00N 36°19' W 001°46'1319.3
2017-Sep-14 12:20N 36°18' W 002°02'15219.2
2017-Sep-14 04:26N 36°01' W 005°09'818.9
2017-Sep-14 04:00N 35°59' W 005°18'6318.4
2017-Sep-14 00:36N 35°59' W 006°36'218.9
2017-Sep-14 00:28N 35°59' W 006°39'4718.7
2017-Sep-13 21:57N 36°12' W 007°35'918.5
2017-Sep-13 21:27N 36°14' W 007°46'918.6
2017-Sep-13 20:59N 36°16' W 007°56'1019.0
2017-Sep-13 20:28N 36°19' W 008°08'918.8
2017-Sep-13 19:59N 36°21' W 008°19'918.9
2017-Sep-13 19:30N 36°23' W 008°30'918.7
2017-Sep-13 19:00N 36°26' W 008°41'1019.1
2017-Sep-13 18:30N 36°28' W 008°53'919.0
2017-Sep-13 18:00N 36°30' W 009°04'918.4
2017-Sep-13 17:30N 36°33' W 009°15'1018.5
2017-Sep-13 16:57N 36°41' W 009°24'819.0
2017-Sep-13 16:30N 36°47' W 009°31'1318.8
2017-Sep-13 15:48N 36°60' W 009°36'719.2
2017-Sep-13 15:25N 37°07' W 009°39'919.2
2017-Sep-13 14:58N 37°15' W 009°42'919.7
2017-Sep-13 14:30N 37°24' W 009°44'1819.4
2017-Sep-13 13:34N 37°42' W 009°49'119.0
2017-Sep-13 13:30N 37°43' W 009°49'918.8
2017-Sep-13 13:00N 37°52' W 009°53'918.8
2017-Sep-13 12:30N 38°01' W 009°56'1018.9
2017-Sep-13 12:00N 38°10' W 009°58'1219.3
2017-Sep-13 11:22N 38°22' W 010°02'919.3
2017-Sep-13 10:54N 38°31' W 010°04'718.9
2017-Sep-13 10:31N 38°38' W 010°06'918.7
2017-Sep-13 10:00N 38°48' W 010°07'1019.3
2017-Sep-13 09:30N 38°57' W 010°07'1019.3
2017-Sep-13 09:00N 39°07' W 010°07'1019.0
2017-Sep-13 08:30N 39°16' W 010°07'3019.0
2017-Sep-13 06:54N 39°47' W 010°07'63717.2
2017-Sep-11 17:51N 49°30' W 004°08'817.2
2017-Sep-11 17:25N 49°34' W 003°58'717.7
2017-Sep-11 17:01N 49°37' W 003°48'918.4
2017-Sep-11 16:30N 49°42' W 003°36'1019.7
2017-Sep-11 16:01N 49°47' W 003°23'1020.6
2017-Sep-11 15:31N 49°52' W 003°09'1020.4
2017-Sep-11 15:01N 49°57' W 002°55'1019.8
2017-Sep-11 14:30N 50°00' W 002°40'2818.2
2017-Sep-11 12:59N 50°08' W 001°59'816.3
2017-Sep-11 12:30N 50°11' W 001°48'815.2
2017-Sep-11 12:00N 50°12' W 001°36'815.0
2017-Sep-11 11:30N 50°14' W 001°25'714.7
2017-Sep-11 11:00N 50°16' W 001°13'114210.7
2017-Sep-11 10:28N 51°05' E 001°30'98182.5
2017-Sep-11 09:55N 50°20' W 000°49'1216.3
2017-Sep-11 09:13N 50°24' W 000°31'417.3
2017-Sep-11 09:01N 50°24' W 000°26'918.0
2017-Sep-11 08:31N 50°27' W 000°12'918.7
2017-Sep-11 08:00N 50°29' E 000°02'1019.3
2017-Sep-11 07:31N 50°32' E 000°16'1019.5
2017-Sep-11 07:00N 50°35' E 000°31'1019.2
2017-Sep-11 06:31N 50°40' E 000°44'919.0
2017-Sep-11 06:01N 50°46' E 000°55'918.1
2017-Sep-11 05:30N 50°52' E 001°06'1017.4
2017-Sep-11 04:56N 50°59' E 001°18'716.2
2017-Sep-11 04:31N 51°04' E 001°25'815.4
2017-Sep-11 04:01N 51°08' E 001°36'815.2
2017-Sep-11 03:31N 51°12' E 001°45'  

Dump ship's entire track history